sensor_id;sensor_type;location;lat;lon;timestamp;temperature;humidity
67027;DHT22;53933;52.142;11.738;2022-10-15T00:02:02;23.40;64.40
67027;DHT22;53933;52.142;11.738;2022-10-15T00:04:29;23.30;64.70
67027;DHT22;53933;52.142;11.738;2022-10-15T00:06:56;23.30;64.70
67027;DHT22;53933;52.142;11.738;2022-10-15T00:09:23;23.30;65.00
67027;DHT22;53933;52.142;11.738;2022-10-15T00:11:49;23.20;65.20
67027;DHT22;53933;52.142;11.738;2022-10-15T00:14:16;23.20;65.30
67027;DHT22;53933;52.142;11.738;2022-10-15T00:16:43;23.10;65.30
67027;DHT22;53933;52.142;11.738;2022-10-15T00:19:11;23.10;65.80
67027;DHT22;53933;52.142;11.738;2022-10-15T00:21:38;23.10;65.70
67027;DHT22;53933;52.142;11.738;2022-10-15T00:24:06;23.10;65.70
67027;DHT22;53933;52.142;11.738;2022-10-15T00:26:32;23.00;65.90
67027;DHT22;53933;52.142;11.738;2022-10-15T00:29:01;22.90;66.20
67027;DHT22;53933;52.142;11.738;2022-10-15T00:31:29;23.00;66.80
67027;DHT22;53933;52.142;11.738;2022-10-15T00:33:58;23.00;66.60
67027;DHT22;53933;52.142;11.738;2022-10-15T00:36:28;23.00;66.30
67027;DHT22;53933;52.142;11.738;2022-10-15T00:38:55;23.00;66.40
67027;DHT22;53933;52.142;11.738;2022-10-15T00:41:25;23.00;66.30
67027;DHT22;53933;52.142;11.738;2022-10-15T00:43:54;23.10;65.80
67027;DHT22;53933;52.142;11.738;2022-10-15T00:46:24;23.10;66.10
67027;DHT22;53933;52.142;11.738;2022-10-15T00:48:56;23.10;65.80
67027;DHT22;53933;52.142;11.738;2022-10-15T00:51:28;23.00;66.10
67027;DHT22;53933;52.142;11.738;2022-10-15T00:53:55;22.90;66.10
67027;DHT22;53933;52.142;11.738;2022-10-15T00:56:23;22.80;66.50
67027;DHT22;53933;52.142;11.738;2022-10-15T00:58:51;22.80;66.70
67027;DHT22;53933;52.142;11.738;2022-10-15T01:01:19;22.70;66.90
67027;DHT22;53933;52.142;11.738;2022-10-15T01:03:46;22.70;67.00
67027;DHT22;53933;52.142;11.738;2022-10-15T01:06:12;22.70;67.20
67027;DHT22;53933;52.142;11.738;2022-10-15T01:08:40;22.70;67.10
67027;DHT22;53933;52.142;11.738;2022-10-15T01:11:16;22.70;66.80
67027;DHT22;53933;52.142;11.738;2022-10-15T01:13:53;22.70;67.00
67027;DHT22;53933;52.142;11.738;2022-10-15T01:16:30;22.70;67.20
67027;DHT22;53933;52.142;11.738;2022-10-15T01:19:00;22.60;67.10
67027;DHT22;53933;52.142;11.738;2022-10-15T01:21:30;22.50;68.40
67027;DHT22;53933;52.142;11.738;2022-10-15T01:24:27;22.60;67.40
67027;DHT22;53933;52.142;11.738;2022-10-15T01:27:21;22.50;67.50
67027;DHT22;53933;52.142;11.738;2022-10-15T01:35:45;22.40;67.80
67027;DHT22;53933;52.142;11.738;2022-10-15T01:38:20;22.40;67.90
67027;DHT22;53933;52.142;11.738;2022-10-15T01:40:52;22.40;67.90
67027;DHT22;53933;52.142;11.738;2022-10-15T01:43:23;22.40;67.90
67027;DHT22;53933;52.142;11.738;2022-10-15T01:45:55;22.40;68.90
67027;DHT22;53933;52.142;11.738;2022-10-15T01:48:25;22.30;67.90
67027;DHT22;53933;52.142;11.738;2022-10-15T01:50:56;22.40;68.20
67027;DHT22;53933;52.142;11.738;2022-10-15T01:53:27;22.40;68.20
67027;DHT22;53933;52.142;11.738;2022-10-15T01:55:56;22.30;68.30
67027;DHT22;53933;52.142;11.738;2022-10-15T01:58:23;22.40;68.40
67027;DHT22;53933;52.142;11.738;2022-10-15T02:00:52;22.30;68.30
67027;DHT22;53933;52.142;11.738;2022-10-15T02:03:20;22.40;68.40
67027;DHT22;53933;52.142;11.738;2022-10-15T02:05:52;22.30;68.30
67027;DHT22;53933;52.142;11.738;2022-10-15T02:08:27;22.40;68.20
67027;DHT22;53933;52.142;11.738;2022-10-15T02:10:59;22.30;69.00
67027;DHT22;53933;52.142;11.738;2022-10-15T02:13:33;22.30;68.30
67027;DHT22;53933;52.142;11.738;2022-10-15T02:16:10;22.30;68.40
67027;DHT22;53933;52.142;11.738;2022-10-15T02:18:41;22.20;68.70
67027;DHT22;53933;52.142;11.738;2022-10-15T02:21:16;22.20;68.60
67027;DHT22;53933;52.142;11.738;2022-10-15T02:23:46;22.20;68.50
67027;DHT22;53933;52.142;11.738;2022-10-15T02:26:17;22.20;68.50
67027;DHT22;53933;52.142;11.738;2022-10-15T02:28:49;22.20;68.50
67027;DHT22;53933;52.142;11.738;2022-10-15T02:31:18;22.20;68.40
67027;DHT22;53933;52.142;11.738;2022-10-15T02:33:46;22.20;68.40
67027;DHT22;53933;52.142;11.738;2022-10-15T02:36:15;22.20;68.40
67027;DHT22;53933;52.142;11.738;2022-10-15T02:38:44;22.20;68.30
67027;DHT22;53933;52.142;11.738;2022-10-15T02:41:11;22.10;68.40
67027;DHT22;53933;52.142;11.738;2022-10-15T02:43:39;22.20;68.50
67027;DHT22;53933;52.142;11.738;2022-10-15T02:46:07;22.10;68.30
67027;DHT22;53933;52.142;11.738;2022-10-15T02:48:34;22.20;68.40
67027;DHT22;53933;52.142;11.738;2022-10-15T02:51:01;22.10;68.30
67027;DHT22;53933;52.142;11.738;2022-10-15T02:53:29;22.10;68.30
67027;DHT22;53933;52.142;11.738;2022-10-15T02:55:55;22.10;68.40
67027;DHT22;53933;52.142;11.738;2022-10-15T02:58:22;22.10;68.60
67027;DHT22;53933;52.142;11.738;2022-10-15T03:00:49;22.10;68.60
67027;DHT22;53933;52.142;11.738;2022-10-15T03:03:16;22.20;68.60
67027;DHT22;53933;52.142;11.738;2022-10-15T03:05:42;22.10;68.50
67027;DHT22;53933;52.142;11.738;2022-10-15T03:08:10;22.10;68.50
67027;DHT22;53933;52.142;11.738;2022-10-15T03:10:38;22.10;68.60
67027;DHT22;53933;52.142;11.738;2022-10-15T03:13:05;22.10;68.80
67027;DHT22;53933;52.142;11.738;2022-10-15T03:15:32;22.10;68.70
67027;DHT22;53933;52.142;11.738;2022-10-15T03:17:59;22.10;68.60
67027;DHT22;53933;52.142;11.738;2022-10-15T03:20:25;22.00;68.60
67027;DHT22;53933;52.142;11.738;2022-10-15T03:22:52;22.00;68.60
67027;DHT22;53933;52.142;11.738;2022-10-15T03:25:19;22.00;68.70
67027;DHT22;53933;52.142;11.738;2022-10-15T03:27:47;22.00;68.80
67027;DHT22;53933;52.142;11.738;2022-10-15T03:30:14;22.00;68.70
67027;DHT22;53933;52.142;11.738;2022-10-15T03:32:40;22.00;68.90
67027;DHT22;53933;52.142;11.738;2022-10-15T03:35:07;22.00;68.70
67027;DHT22;53933;52.142;11.738;2022-10-15T03:37:34;22.00;68.80
67027;DHT22;53933;52.142;11.738;2022-10-15T03:40:01;22.00;68.60
67027;DHT22;53933;52.142;11.738;2022-10-15T03:42:28;22.00;68.80
67027;DHT22;53933;52.142;11.738;2022-10-15T03:44:56;22.00;68.80
67027;DHT22;53933;52.142;11.738;2022-10-15T03:47:23;22.00;68.90
67027;DHT22;53933;52.142;11.738;2022-10-15T03:49:50;22.00;68.80
67027;DHT22;53933;52.142;11.738;2022-10-15T03:52:17;22.00;68.70
67027;DHT22;53933;52.142;11.738;2022-10-15T03:54:43;22.00;68.60
67027;DHT22;53933;52.142;11.738;2022-10-15T03:57:10;22.00;68.70
67027;DHT22;53933;52.142;11.738;2022-10-15T03:59:37;21.90;68.70
67027;DHT22;53933;52.142;11.738;2022-10-15T04:02:05;22.00;68.80
67027;DHT22;53933;52.142;11.738;2022-10-15T04:04:31;22.00;68.70
67027;DHT22;53933;52.142;11.738;2022-10-15T04:06:58;21.90;68.50
67027;DHT22;53933;52.142;11.738;2022-10-15T04:09:25;21.90;68.70
67027;DHT22;53933;52.142;11.738;2022-10-15T04:11:51;21.90;68.60
67027;DHT22;53933;52.142;11.738;2022-10-15T04:14:18;21.90;68.70
67027;DHT22;53933;52.142;11.738;2022-10-15T04:16:45;21.90;68.70
67027;DHT22;53933;52.142;11.738;2022-10-15T04:19:13;21.90;68.80
67027;DHT22;53933;52.142;11.738;2022-10-15T04:21:40;21.90;68.80
67027;DHT22;53933;52.142;11.738;2022-10-15T04:24:07;21.80;68.80
67027;DHT22;53933;52.142;11.738;2022-10-15T04:26:35;21.90;68.90
67027;DHT22;53933;52.142;11.738;2022-10-15T04:29:01;21.90;68.90
67027;DHT22;53933;52.142;11.738;2022-10-15T04:31:28;21.90;68.90
67027;DHT22;53933;52.142;11.738;2022-10-15T04:33:55;21.90;68.80
67027;DHT22;53933;52.142;11.738;2022-10-15T04:36:23;21.90;68.70
67027;DHT22;53933;52.142;11.738;2022-10-15T04:38:51;21.90;68.80
67027;DHT22;53933;52.142;11.738;2022-10-15T04:41:18;21.90;68.80
67027;DHT22;53933;52.142;11.738;2022-10-15T04:43:44;21.90;68.90
67027;DHT22;53933;52.142;11.738;2022-10-15T04:46:12;21.90;68.90
67027;DHT22;53933;52.142;11.738;2022-10-15T04:48:39;21.90;69.00
67027;DHT22;53933;52.142;11.738;2022-10-15T04:51:07;21.90;68.90
67027;DHT22;53933;52.142;11.738;2022-10-15T04:53:35;21.80;68.90
67027;DHT22;53933;52.142;11.738;2022-10-15T04:56:03;21.80;68.90
67027;DHT22;53933;52.142;11.738;2022-10-15T04:58:31;21.80;69.10
67027;DHT22;53933;52.142;11.738;2022-10-15T05:00:59;21.80;69.10
67027;DHT22;53933;52.142;11.738;2022-10-15T05:03:26;21.90;69.00
67027;DHT22;53933;52.142;11.738;2022-10-15T05:05:53;21.80;69.00
67027;DHT22;53933;52.142;11.738;2022-10-15T05:08:20;21.90;69.10
67027;DHT22;53933;52.142;11.738;2022-10-15T05:10:48;21.90;69.00
67027;DHT22;53933;52.142;11.738;2022-10-15T05:13:14;21.90;68.80
67027;DHT22;53933;52.142;11.738;2022-10-15T05:15:41;21.90;68.80
67027;DHT22;53933;52.142;11.738;2022-10-15T05:18:08;21.90;69.00
67027;DHT22;53933;52.142;11.738;2022-10-15T05:20:34;21.90;68.90
67027;DHT22;53933;52.142;11.738;2022-10-15T05:23:01;21.90;69.00
67027;DHT22;53933;52.142;11.738;2022-10-15T05:25:30;21.80;69.10
67027;DHT22;53933;52.142;11.738;2022-10-15T05:27:58;21.80;69.00
67027;DHT22;53933;52.142;11.738;2022-10-15T05:30:25;21.80;69.00
67027;DHT22;53933;52.142;11.738;2022-10-15T05:32:52;21.80;69.10
67027;DHT22;53933;52.142;11.738;2022-10-15T05:35:19;21.80;69.00
67027;DHT22;53933;52.142;11.738;2022-10-15T05:37:47;21.80;68.90
67027;DHT22;53933;52.142;11.738;2022-10-15T05:40:14;21.80;69.10
67027;DHT22;53933;52.142;11.738;2022-10-15T05:42:41;21.90;69.00
67027;DHT22;53933;52.142;11.738;2022-10-15T05:45:10;21.80;69.00
67027;DHT22;53933;52.142;11.738;2022-10-15T05:47:36;21.80;69.00
67027;DHT22;53933;52.142;11.738;2022-10-15T05:50:04;21.80;69.00
67027;DHT22;53933;52.142;11.738;2022-10-15T05:52:31;21.80;69.10
67027;DHT22;53933;52.142;11.738;2022-10-15T05:54:57;21.80;69.00
67027;DHT22;53933;52.142;11.738;2022-10-15T05:57:24;21.90;69.10
67027;DHT22;53933;52.142;11.738;2022-10-15T05:59:51;21.80;69.10
67027;DHT22;53933;52.142;11.738;2022-10-15T06:02:19;21.90;69.20
67027;DHT22;53933;52.142;11.738;2022-10-15T06:04:46;21.80;69.20
67027;DHT22;53933;52.142;11.738;2022-10-15T06:07:13;21.80;69.30
67027;DHT22;53933;52.142;11.738;2022-10-15T06:09:40;21.80;69.30
67027;DHT22;53933;52.142;11.738;2022-10-15T06:12:06;21.80;69.50
67027;DHT22;53933;52.142;11.738;2022-10-15T06:14:33;21.90;69.60
67027;DHT22;53933;52.142;11.738;2022-10-15T06:17:00;21.90;69.70
67027;DHT22;53933;52.142;11.738;2022-10-15T06:19:28;21.70;69.60
67027;DHT22;53933;52.142;11.738;2022-10-15T06:21:55;21.60;70.10
67027;DHT22;53933;52.142;11.738;2022-10-15T06:24:21;21.50;70.40
67027;DHT22;53933;52.142;11.738;2022-10-15T06:26:48;21.30;70.60
67027;DHT22;53933;52.142;11.738;2022-10-15T06:29:15;21.30;70.70
67027;DHT22;53933;52.142;11.738;2022-10-15T06:31:41;21.30;70.90
67027;DHT22;53933;52.142;11.738;2022-10-15T06:34:08;21.40;70.80
67027;DHT22;53933;52.142;11.738;2022-10-15T06:36:36;21.50;70.50
67027;DHT22;53933;52.142;11.738;2022-10-15T06:39:03;21.60;70.20
67027;DHT22;53933;52.142;11.738;2022-10-15T06:41:30;21.70;71.00
67027;DHT22;53933;52.142;11.738;2022-10-15T06:43:56;21.80;69.90
67027;DHT22;53933;52.142;11.738;2022-10-15T06:46:23;21.80;69.80
67027;DHT22;53933;52.142;11.738;2022-10-15T06:48:50;21.80;70.00
67027;DHT22;53933;52.142;11.738;2022-10-15T06:51:17;21.90;69.80
67027;DHT22;53933;52.142;11.738;2022-10-15T06:53:45;21.90;69.70
67027;DHT22;53933;52.142;11.738;2022-10-15T06:56:11;22.00;69.50
67027;DHT22;53933;52.142;11.738;2022-10-15T06:58:40;21.90;69.30
67027;DHT22;53933;52.142;11.738;2022-10-15T07:01:07;22.00;69.30
67027;DHT22;53933;52.142;11.738;2022-10-15T07:03:35;22.00;69.10
67027;DHT22;53933;52.142;11.738;2022-10-15T07:06:04;22.00;69.10
67027;DHT22;53933;52.142;11.738;2022-10-15T07:08:31;22.10;69.30
67027;DHT22;53933;52.142;11.738;2022-10-15T07:11:00;22.20;69.40
67027;DHT22;53933;52.142;11.738;2022-10-15T07:13:27;22.30;69.60
67027;DHT22;53933;52.142;11.738;2022-10-15T07:15:54;22.50;69.10
67027;DHT22;53933;52.142;11.738;2022-10-15T07:18:21;22.70;68.60
67027;DHT22;53933;52.142;11.738;2022-10-15T07:20:47;22.90;67.80
67027;DHT22;53933;52.142;11.738;2022-10-15T07:23:14;23.10;67.40
67027;DHT22;53933;52.142;11.738;2022-10-15T07:25:41;23.10;67.10
67027;DHT22;53933;52.142;11.738;2022-10-15T07:28:09;23.30;66.90
67027;DHT22;53933;52.142;11.738;2022-10-15T07:30:35;23.40;66.30
67027;DHT22;53933;52.142;11.738;2022-10-15T07:33:02;23.40;66.10
67027;DHT22;53933;52.142;11.738;2022-10-15T07:35:29;23.50;65.80
67027;DHT22;53933;52.142;11.738;2022-10-15T07:37:59;23.60;65.60
67027;DHT22;53933;52.142;11.738;2022-10-15T07:40:26;23.70;65.40
67027;DHT22;53933;52.142;11.738;2022-10-15T07:42:52;23.80;65.20
67027;DHT22;53933;52.142;11.738;2022-10-15T07:45:22;23.80;64.80
67027;DHT22;53933;52.142;11.738;2022-10-15T07:47:48;23.90;64.50
67027;DHT22;53933;52.142;11.738;2022-10-15T07:50:15;24.00;64.30
67027;DHT22;53933;52.142;11.738;2022-10-15T07:52:42;24.00;64.00
67027;DHT22;53933;52.142;11.738;2022-10-15T07:55:09;24.10;64.00
67027;DHT22;53933;52.142;11.738;2022-10-15T07:57:36;24.10;63.70
67027;DHT22;53933;52.142;11.738;2022-10-15T08:00:04;24.10;63.50
67027;DHT22;53933;52.142;11.738;2022-10-15T08:02:32;24.10;63.40
67027;DHT22;53933;52.142;11.738;2022-10-15T08:04:59;24.20;63.60
67027;DHT22;53933;52.142;11.738;2022-10-15T08:07:25;24.20;63.50
67027;DHT22;53933;52.142;11.738;2022-10-15T08:09:52;24.20;63.50
67027;DHT22;53933;52.142;11.738;2022-10-15T08:12:19;24.20;63.60
67027;DHT22;53933;52.142;11.738;2022-10-15T08:14:46;24.10;63.40
67027;DHT22;53933;52.142;11.738;2022-10-15T08:17:12;24.20;63.60
67027;DHT22;53933;52.142;11.738;2022-10-15T08:19:40;24.10;63.40
67027;DHT22;53933;52.142;11.738;2022-10-15T08:22:07;24.20;63.40
67027;DHT22;53933;52.142;11.738;2022-10-15T08:24:34;24.20;63.40
67027;DHT22;53933;52.142;11.738;2022-10-15T08:27:00;24.20;63.40
67027;DHT22;53933;52.142;11.738;2022-10-15T08:29:27;24.20;63.40
67027;DHT22;53933;52.142;11.738;2022-10-15T08:31:54;24.20;63.40
67027;DHT22;53933;52.142;11.738;2022-10-15T08:34:20;24.20;63.20
67027;DHT22;53933;52.142;11.738;2022-10-15T08:36:48;24.20;63.20
67027;DHT22;53933;52.142;11.738;2022-10-15T08:39:15;24.20;63.10
67027;DHT22;53933;52.142;11.738;2022-10-15T08:41:45;24.20;63.10
67027;DHT22;53933;52.142;11.738;2022-10-15T08:44:18;24.20;63.10
67027;DHT22;53933;52.142;11.738;2022-10-15T08:46:49;24.20;63.10
67027;DHT22;53933;52.142;11.738;2022-10-15T08:49:26;24.20;63.00
67027;DHT22;53933;52.142;11.738;2022-10-15T08:52:02;24.20;62.90
67027;DHT22;53933;52.142;11.738;2022-10-15T08:54:31;24.20;62.90
67027;DHT22;53933;52.142;11.738;2022-10-15T08:57:15;24.30;62.90
67027;DHT22;53933;52.142;11.738;2022-10-15T08:59:48;24.20;62.70
67027;DHT22;53933;52.142;11.738;2022-10-15T09:02:18;24.30;62.80
67027;DHT22;53933;52.142;11.738;2022-10-15T09:04:52;24.30;62.60
67027;DHT22;53933;52.142;11.738;2022-10-15T09:07:25;24.30;62.60
67027;DHT22;53933;52.142;11.738;2022-10-15T09:10:09;24.40;62.50
67027;DHT22;53933;52.142;11.738;2022-10-15T09:12:45;24.40;62.60
67027;DHT22;53933;52.142;11.738;2022-10-15T09:15:14;24.40;62.60
67027;DHT22;53933;52.142;11.738;2022-10-15T09:17:42;24.40;62.50
67027;DHT22;53933;52.142;11.738;2022-10-15T09:20:16;24.40;62.60
67027;DHT22;53933;52.142;11.738;2022-10-15T09:22:45;24.40;62.50
67027;DHT22;53933;52.142;11.738;2022-10-15T09:25:16;24.40;62.50
67027;DHT22;53933;52.142;11.738;2022-10-15T09:27:45;24.40;62.60
67027;DHT22;53933;52.142;11.738;2022-10-15T09:30:26;24.40;62.60
67027;DHT22;53933;52.142;11.738;2022-10-15T09:33:02;24.40;62.70
67027;DHT22;53933;52.142;11.738;2022-10-15T09:35:34;24.40;62.70
67027;DHT22;53933;52.142;11.738;2022-10-15T09:38:22;24.40;62.60
67027;DHT22;53933;52.142;11.738;2022-10-15T09:40:58;24.40;62.60
67027;DHT22;53933;52.142;11.738;2022-10-15T09:43:29;24.40;62.60
67027;DHT22;53933;52.142;11.738;2022-10-15T09:46:00;24.40;62.60
67027;DHT22;53933;52.142;11.738;2022-10-15T09:48:29;24.40;62.80
67027;DHT22;53933;52.142;11.738;2022-10-15T09:50:59;24.40;62.70
67027;DHT22;53933;52.142;11.738;2022-10-15T09:53:40;24.40;62.60
67027;DHT22;53933;52.142;11.738;2022-10-15T09:56:14;24.40;62.60
67027;DHT22;53933;52.142;11.738;2022-10-15T09:58:49;24.50;62.50
67027;DHT22;53933;52.142;11.738;2022-10-15T10:01:17;24.50;62.40
67027;DHT22;53933;52.142;11.738;2022-10-15T10:03:44;24.50;62.40
67027;DHT22;53933;52.142;11.738;2022-10-15T10:06:13;24.50;62.30
67027;DHT22;53933;52.142;11.738;2022-10-15T10:08:49;24.60;62.20
67027;DHT22;53933;52.142;11.738;2022-10-15T10:11:17;24.70;62.00
67027;DHT22;53933;52.142;11.738;2022-10-15T10:13:50;24.80;61.70
67027;DHT22;53933;52.142;11.738;2022-10-15T10:16:18;25.10;60.90
67027;DHT22;53933;52.142;11.738;2022-10-15T10:19:04;25.40;60.70
67027;DHT22;53933;52.142;11.738;2022-10-15T10:21:32;25.70;59.50
67027;DHT22;53933;52.142;11.738;2022-10-15T10:24:25;26.00;58.80
67027;DHT22;53933;52.142;11.738;2022-10-15T10:26:55;26.20;58.60
67027;DHT22;53933;52.142;11.738;2022-10-15T10:29:22;26.30;58.30
67027;DHT22;53933;52.142;11.738;2022-10-15T10:31:50;26.10;58.20
67027;DHT22;53933;52.142;11.738;2022-10-15T10:34:20;26.00;58.50
67027;DHT22;53933;52.142;11.738;2022-10-15T10:36:50;25.80;58.90
67027;DHT22;53933;52.142;11.738;2022-10-15T10:39:25;25.70;59.30
67027;DHT22;53933;52.142;11.738;2022-10-15T10:41:54;25.50;59.60
67027;DHT22;53933;52.142;11.738;2022-10-15T10:44:26;25.40;59.90
67027;DHT22;53933;52.142;11.738;2022-10-15T10:47:11;25.30;60.10
67027;DHT22;53933;52.142;11.738;2022-10-15T10:49:40;25.30;60.50
67027;DHT22;53933;52.142;11.738;2022-10-15T10:52:18;25.20;60.60
67027;DHT22;53933;52.142;11.738;2022-10-15T10:54:52;25.20;60.80
67027;DHT22;53933;52.142;11.738;2022-10-15T10:57:26;25.10;60.80
67027;DHT22;53933;52.142;11.738;2022-10-15T10:59:55;25.10;61.00
67027;DHT22;53933;52.142;11.738;2022-10-15T11:02:22;25.00;61.00
67027;DHT22;53933;52.142;11.738;2022-10-15T11:04:49;25.00;61.00
67027;DHT22;53933;52.142;11.738;2022-10-15T11:07:21;25.00;61.10
67027;DHT22;53933;52.142;11.738;2022-10-15T11:09:59;25.00;61.30
67027;DHT22;53933;52.142;11.738;2022-10-15T11:12:34;24.90;61.30
67027;DHT22;53933;52.142;11.738;2022-10-15T11:15:17;24.90;61.40
67027;DHT22;53933;52.142;11.738;2022-10-15T11:17:51;24.90;61.40
67027;DHT22;53933;52.142;11.738;2022-10-15T11:20:27;24.90;61.50
67027;DHT22;53933;52.142;11.738;2022-10-15T11:23:05;24.90;61.50
67027;DHT22;53933;52.142;11.738;2022-10-15T11:25:47;24.90;62.40
67027;DHT22;53933;52.142;11.738;2022-10-15T11:28:26;25.00;61.50
67027;DHT22;53933;52.142;11.738;2022-10-15T11:31:01;25.00;61.50
67027;DHT22;53933;52.142;11.738;2022-10-15T11:33:48;25.00;61.50
67027;DHT22;53933;52.142;11.738;2022-10-15T11:36:40;25.00;61.20
67027;DHT22;53933;52.142;11.738;2022-10-15T11:39:25;25.10;61.20
67027;DHT22;53933;52.142;11.738;2022-10-15T11:42:03;25.00;61.10
67027;DHT22;53933;52.142;11.738;2022-10-15T11:44:50;25.00;61.10
67027;DHT22;53933;52.142;11.738;2022-10-15T11:47:31;25.00;61.30
67027;DHT22;53933;52.142;11.738;2022-10-15T11:50:10;25.00;61.50
67027;DHT22;53933;52.142;11.738;2022-10-15T11:52:52;25.00;61.80
67027;DHT22;53933;52.142;11.738;2022-10-15T11:55:27;25.00;61.70
67027;DHT22;53933;52.142;11.738;2022-10-15T11:58:01;25.10;61.70
67027;DHT22;53933;52.142;11.738;2022-10-15T12:00:32;25.20;61.70
67027;DHT22;53933;52.142;11.738;2022-10-15T12:03:04;25.20;61.40
67027;DHT22;53933;52.142;11.738;2022-10-15T12:05:34;25.10;61.60
67027;DHT22;53933;52.142;11.738;2022-10-15T12:08:04;25.10;61.60
67027;DHT22;53933;52.142;11.738;2022-10-15T12:10:41;25.10;61.50
67027;DHT22;53933;52.142;11.738;2022-10-15T12:13:17;25.10;61.50
67027;DHT22;53933;52.142;11.738;2022-10-15T12:15:53;25.10;61.70
67027;DHT22;53933;52.142;11.738;2022-10-15T12:18:26;25.10;61.70
67027;DHT22;53933;52.142;11.738;2022-10-15T12:20:57;25.00;61.60
67027;DHT22;53933;52.142;11.738;2022-10-15T12:23:25;25.10;61.70
67027;DHT22;53933;52.142;11.738;2022-10-15T12:26:26;25.00;61.80
67027;DHT22;53933;52.142;11.738;2022-10-15T12:28:55;25.00;61.70
67027;DHT22;53933;52.142;11.738;2022-10-15T12:31:23;25.00;61.80
67027;DHT22;53933;52.142;11.738;2022-10-15T12:33:51;25.00;61.60
67027;DHT22;53933;52.142;11.738;2022-10-15T12:36:22;25.00;61.60
67027;DHT22;53933;52.142;11.738;2022-10-15T12:38:56;25.00;61.80
67027;DHT22;53933;52.142;11.738;2022-10-15T12:41:34;25.10;61.80
67027;DHT22;53933;52.142;11.738;2022-10-15T12:44:14;25.00;61.60
67027;DHT22;53933;52.142;11.738;2022-10-15T12:46:43;25.00;61.70
67027;DHT22;53933;52.142;11.738;2022-10-15T12:49:44;25.00;61.90
67027;DHT22;53933;52.142;11.738;2022-10-15T12:55:22;25.00;62.20
67027;DHT22;53933;52.142;11.738;2022-10-15T12:57:51;25.00;62.10
67027;DHT22;53933;52.142;11.738;2022-10-15T13:00:39;25.00;62.10
67027;DHT22;53933;52.142;11.738;2022-10-15T13:03:23;25.00;62.00
67027;DHT22;53933;52.142;11.738;2022-10-15T13:05:51;24.90;63.00
67027;DHT22;53933;52.142;11.738;2022-10-15T13:08:21;25.00;62.10
67027;DHT22;53933;52.142;11.738;2022-10-15T13:10:52;25.00;62.40
67027;DHT22;53933;52.142;11.738;2022-10-15T13:13:23;25.00;62.40
67027;DHT22;53933;52.142;11.738;2022-10-15T13:15:55;25.00;62.30
67027;DHT22;53933;52.142;11.738;2022-10-15T13:18:24;25.00;62.70
67027;DHT22;53933;52.142;11.738;2022-10-15T13:20:51;25.10;62.60
67027;DHT22;53933;52.142;11.738;2022-10-15T13:23:22;25.10;62.40
67027;DHT22;53933;52.142;11.738;2022-10-15T13:26:01;25.20;62.50
67027;DHT22;53933;52.142;11.738;2022-10-15T13:28:37;25.10;62.00
67027;DHT22;53933;52.142;11.738;2022-10-15T13:31:13;25.20;62.40
67027;DHT22;53933;52.142;11.738;2022-10-15T13:33:42;25.10;62.60
67027;DHT22;53933;52.142;11.738;2022-10-15T13:36:18;25.10;62.70
67027;DHT22;53933;52.142;11.738;2022-10-15T13:38:51;25.10;62.90
67027;DHT22;53933;52.142;11.738;2022-10-15T13:41:25;25.10;63.00
67027;DHT22;53933;52.142;11.738;2022-10-15T13:43:53;25.10;63.50
67027;DHT22;53933;52.142;11.738;2022-10-15T13:46:25;25.10;63.40
67027;DHT22;53933;52.142;11.738;2022-10-15T13:48:56;25.10;63.40
67027;DHT22;53933;52.142;11.738;2022-10-15T13:51:28;25.20;63.60
67027;DHT22;53933;52.142;11.738;2022-10-15T13:53:58;25.10;63.60
67027;DHT22;53933;52.142;11.738;2022-10-15T13:56:28;25.20;63.00
67027;DHT22;53933;52.142;11.738;2022-10-15T13:58:55;25.10;62.80
67027;DHT22;53933;52.142;11.738;2022-10-15T14:01:26;25.10;62.70
67027;DHT22;53933;52.142;11.738;2022-10-15T14:03:55;25.10;62.80
67027;DHT22;53933;52.142;11.738;2022-10-15T14:06:23;25.10;63.00
67027;DHT22;53933;52.142;11.738;2022-10-15T14:08:52;25.10;62.90
67027;DHT22;53933;52.142;11.738;2022-10-15T14:11:19;25.10;62.80
67027;DHT22;53933;52.142;11.738;2022-10-15T14:13:48;25.00;62.60
67027;DHT22;53933;52.142;11.738;2022-10-15T14:16:19;25.00;62.70
67027;DHT22;53933;52.142;11.738;2022-10-15T14:18:50;25.00;62.80
67027;DHT22;53933;52.142;11.738;2022-10-15T14:21:19;25.00;62.80
67027;DHT22;53933;52.142;11.738;2022-10-15T14:23:47;25.00;62.60
67027;DHT22;53933;52.142;11.738;2022-10-15T14:26:15;25.00;62.60
67027;DHT22;53933;52.142;11.738;2022-10-15T14:28:49;25.00;62.60
67027;DHT22;53933;52.142;11.738;2022-10-15T14:31:29;25.00;62.60
67027;DHT22;53933;52.142;11.738;2022-10-15T14:33:58;25.00;62.50
67027;DHT22;53933;52.142;11.738;2022-10-15T14:36:26;25.00;62.60
67027;DHT22;53933;52.142;11.738;2022-10-15T14:38:55;25.00;62.60
67027;DHT22;53933;52.142;11.738;2022-10-15T14:41:54;25.00;62.90
67027;DHT22;53933;52.142;11.738;2022-10-15T14:44:20;25.00;62.60
67027;DHT22;53933;52.142;11.738;2022-10-15T14:46:49;25.00;62.70
67027;DHT22;53933;52.142;11.738;2022-10-15T14:49:22;25.00;62.50
67027;DHT22;53933;52.142;11.738;2022-10-15T14:51:59;25.10;62.60
67027;DHT22;53933;52.142;11.738;2022-10-15T14:54:32;25.10;62.50
67027;DHT22;53933;52.142;11.738;2022-10-15T14:56:59;25.00;62.50
67027;DHT22;53933;52.142;11.738;2022-10-15T14:59:31;25.00;62.50
67027;DHT22;53933;52.142;11.738;2022-10-15T15:02:00;25.00;62.60
67027;DHT22;53933;52.142;11.738;2022-10-15T15:04:38;25.10;62.50
67027;DHT22;53933;52.142;11.738;2022-10-15T15:07:17;25.10;62.40
67027;DHT22;53933;52.142;11.738;2022-10-15T15:09:48;25.00;62.30
67027;DHT22;53933;52.142;11.738;2022-10-15T15:12:18;25.00;62.20
67027;DHT22;53933;52.142;11.738;2022-10-15T15:14:45;25.00;62.20
67027;DHT22;53933;52.142;11.738;2022-10-15T15:17:15;25.00;62.10
67027;DHT22;53933;52.142;11.738;2022-10-15T15:19:43;25.00;62.10
67027;DHT22;53933;52.142;11.738;2022-10-15T15:22:12;25.00;62.10
67027;DHT22;53933;52.142;11.738;2022-10-15T15:24:39;25.00;62.10
67027;DHT22;53933;52.142;11.738;2022-10-15T15:27:08;25.00;62.20
67027;DHT22;53933;52.142;11.738;2022-10-15T15:29:37;25.00;62.20
67027;DHT22;53933;52.142;11.738;2022-10-15T15:32:04;25.00;62.30
67027;DHT22;53933;52.142;11.738;2022-10-15T15:34:31;25.00;62.20
67027;DHT22;53933;52.142;11.738;2022-10-15T15:37:00;25.00;62.20
67027;DHT22;53933;52.142;11.738;2022-10-15T15:39:26;25.00;62.20
67027;DHT22;53933;52.142;11.738;2022-10-15T15:41:53;24.90;62.30
67027;DHT22;53933;52.142;11.738;2022-10-15T15:44:20;24.90;62.30